createdAt,value
2023-12-09T00:04:04.005Z,3.15
2023-12-09T00:09:05.944Z,3.20
2023-12-09T00:14:07.671Z,3.18
2023-12-09T00:19:10.707Z,3.21
2023-12-09T00:24:12.643Z,3.22
2023-12-09T00:29:14.276Z,3.19
2023-12-09T00:34:16.167Z,3.14
2023-12-09T00:39:17.852Z,3.22
2023-12-09T00:44:22.134Z,3.28
2023-12-09T00:49:23.844Z,3.26
2023-12-09T00:54:26.635Z,3.28
2023-12-09T00:59:28.289Z,3.27
2023-12-09T01:04:29.953Z,3.26
2023-12-09T01:09:31.694Z,3.24
2023-12-09T01:14:33.356Z,3.35
2023-12-09T01:19:35.049Z,3.33
2023-12-09T01:24:36.708Z,3.36
2023-12-09T01:29:38.335Z,3.32
2023-12-09T01:34:41.821Z,3.31
2023-12-09T01:39:43.585Z,3.37
2023-12-09T01:44:45.842Z,3.45
2023-12-09T01:49:47.978Z,3.42
2023-12-09T01:54:49.722Z,3.43
2023-12-09T01:59:51.423Z,3.44
2023-12-09T02:04:54.136Z,3.46
2023-12-09T02:09:55.857Z,3.48
2023-12-09T02:15:03.636Z,3.43
2023-12-09T02:20:06.948Z,3.39
2023-12-09T02:25:08.939Z,3.47
2023-12-09T02:30:22.378Z,3.47
2023-12-09T02:35:25.484Z,3.39
2023-12-09T02:40:28.191Z,3.44
2023-12-09T02:45:29.837Z,3.46
2023-12-09T02:50:31.788Z,3.46
2023-12-09T02:55:33.371Z,3.43
2023-12-09T03:00:35.437Z,3.44
2023-12-09T03:05:37.171Z,3.41
2023-12-09T03:10:38.844Z,3.39
2023-12-09T03:15:40.496Z,3.39
2023-12-09T03:20:42.168Z,3.42
2023-12-09T03:25:43.790Z,3.40
2023-12-09T03:30:45.425Z,3.40
2023-12-09T03:35:47.050Z,3.47
2023-12-09T03:40:48.691Z,3.40
2023-12-09T03:45:50.361Z,3.39
2023-12-09T03:50:52.104Z,3.47
2023-12-09T03:55:53.765Z,3.40
2023-12-09T04:00:55.373Z,3.43
2023-12-09T04:05:57.109Z,3.40
2023-12-09T04:10:58.765Z,3.31
2023-12-09T04:16:01.237Z,3.31
2023-12-09T04:21:03.080Z,3.35
2023-12-09T04:26:05.879Z,3.40
2023-12-09T04:31:07.521Z,3.42
2023-12-09T04:36:09.483Z,3.45
2023-12-09T04:41:11.129Z,3.40
2023-12-09T04:46:12.751Z,3.43
2023-12-09T04:51:14.403Z,3.36
2023-12-09T04:56:16.208Z,3.43
2023-12-09T05:01:18.380Z,3.42
2023-12-09T05:06:21.376Z,3.39
2023-12-09T05:11:23.080Z,3.35
2023-12-09T05:16:24.695Z,3.40
2023-12-09T05:21:35.228Z,3.38
2023-12-09T05:26:38.093Z,3.44
2023-12-09T05:31:39.710Z,3.41
2023-12-09T05:36:41.628Z,3.44
2023-12-09T05:41:43.422Z,3.41
2023-12-09T05:46:45.117Z,3.40
2023-12-09T05:51:46.897Z,3.45
2023-12-09T05:56:50.033Z,3.46
2023-12-09T06:01:51.687Z,3.47
2023-12-09T06:06:53.325Z,3.39
2023-12-09T06:11:54.934Z,3.41
2023-12-09T06:16:56.636Z,3.45
2023-12-09T06:21:58.321Z,3.46
2023-12-09T06:27:00.041Z,3.42
2023-12-09T06:32:02.008Z,3.44
2023-12-09T06:37:03.834Z,3.40
2023-12-09T06:42:06.826Z,3.35
2023-12-09T06:47:11.058Z,3.30
2023-12-09T06:52:12.740Z,3.25
2023-12-09T06:57:14.366Z,3.29
2023-12-09T07:02:16.046Z,3.36
2023-12-09T07:07:21.941Z,3.38
2023-12-09T07:12:24.609Z,3.25
2023-12-09T07:17:26.877Z,3.43
2023-12-09T07:22:28.874Z,3.33
2023-12-09T07:27:30.679Z,3.45
2023-12-09T07:32:32.888Z,3.40
2023-12-09T07:37:34.797Z,3.45
2023-12-09T07:42:36.469Z,3.49
2023-12-09T07:47:38.194Z,3.39
2023-12-09T07:52:40.523Z,3.47
2023-12-09T07:57:42.172Z,3.55
2023-12-09T08:02:43.996Z,3.51
2023-12-09T08:07:45.642Z,3.64
2023-12-09T08:12:47.338Z,3.68
2023-12-09T08:17:49.036Z,3.83
2023-12-09T08:22:50.699Z,3.79
2023-12-09T08:27:52.355Z,3.79
2023-12-09T08:32:54.862Z,3.79
2023-12-09T08:37:56.516Z,3.80
2023-12-09T08:42:58.647Z,3.84
2023-12-09T08:48:00.480Z,3.93
2023-12-09T08:53:03.650Z,3.93
2023-12-09T08:58:05.256Z,4.01
2023-12-09T09:03:07.994Z,3.97
2023-12-09T09:08:09.821Z,3.86
2023-12-09T09:13:11.509Z,3.98
2023-12-09T09:18:13.254Z,3.96
2023-12-09T09:23:15.034Z,4.06
2023-12-09T09:28:16.714Z,4.02
2023-12-09T09:33:19.450Z,4.05
2023-12-09T09:38:21.233Z,4.05
2023-12-09T09:43:26.160Z,4.07
2023-12-09T09:48:29.980Z,4.14
2023-12-09T09:53:40.736Z,4.18
2023-12-09T09:58:43.364Z,4.25
2023-12-09T10:03:45.060Z,4.25
2023-12-09T10:08:50.167Z,4.38
2023-12-09T10:13:52.546Z,4.33
2023-12-09T10:18:55.072Z,4.36
2023-12-09T10:23:57.151Z,4.46
2023-12-09T10:28:58.881Z,4.52
2023-12-09T10:34:00.568Z,4.56
2023-12-09T10:39:06.340Z,4.65
2023-12-09T10:44:08.299Z,4.65
2023-12-09T10:49:10.116Z,4.72
2023-12-09T10:54:11.863Z,4.73
2023-12-09T10:59:14.499Z,4.90
2023-12-09T11:04:16.550Z,5.00
2023-12-09T11:09:20.168Z,4.97
2023-12-09T11:14:26.270Z,5.05
2023-12-09T11:19:28.174Z,5.02
2023-12-09T11:24:31.634Z,5.05
2023-12-09T11:29:34.670Z,5.04
2023-12-09T11:34:36.764Z,5.16
2023-12-09T11:39:39.693Z,5.21
2023-12-09T11:44:42.214Z,5.19
2023-12-09T11:49:44.306Z,5.23
2023-12-09T11:54:46.144Z,5.32
2023-12-09T11:59:47.801Z,5.33
2023-12-09T12:04:49.788Z,5.27
2023-12-09T12:09:51.780Z,5.23
2023-12-09T12:14:53.783Z,5.24
2023-12-09T12:19:56.679Z,5.25
2023-12-09T12:24:58.403Z,5.21
2023-12-09T12:30:00.307Z,5.15
2023-12-09T12:35:04.435Z,5.16
2023-12-09T12:40:06.585Z,5.13
2023-12-09T12:45:24.820Z,5.11
2023-12-09T12:50:27.901Z,5.04
2023-12-09T12:55:29.861Z,5.09
2023-12-09T13:00:31.728Z,5.15
2023-12-09T13:05:33.650Z,5.17
2023-12-09T13:10:35.315Z,5.21
2023-12-09T13:15:37.028Z,5.27
2023-12-09T13:20:39.177Z,5.32
2023-12-09T13:25:41.830Z,5.42
2023-12-09T13:30:43.597Z,5.43
2023-12-09T13:35:45.312Z,5.46
2023-12-09T13:40:47.422Z,5.53
2023-12-09T13:45:49.365Z,5.44
2023-12-09T13:50:51.256Z,5.44
2023-12-09T13:55:52.925Z,5.39
2023-12-09T14:00:54.949Z,5.38
2023-12-09T14:05:56.682Z,5.45
2023-12-09T14:10:58.781Z,5.25
2023-12-09T14:16:00.558Z,5.15
2023-12-09T14:21:02.328Z,5.09
2023-12-09T14:26:04.697Z,4.83
2023-12-09T14:31:07.241Z,4.77
2023-12-09T14:36:10.086Z,4.70
2023-12-09T14:41:11.926Z,4.49
2023-12-09T14:46:14.050Z,4.49
2023-12-09T14:51:15.886Z,4.43
2023-12-09T14:56:17.652Z,4.35
2023-12-09T15:01:19.904Z,4.30
2023-12-09T15:06:21.703Z,4.22
2023-12-09T15:11:25.574Z,4.11
2023-12-09T15:16:27.338Z,4.13
2023-12-09T15:21:29.194Z,4.12
2023-12-09T15:26:31.003Z,4.07
2023-12-09T15:31:32.735Z,3.98
2023-12-09T15:36:34.455Z,3.98
2023-12-09T15:41:36.182Z,4.00
2023-12-09T15:46:38.089Z,3.90
2023-12-09T15:51:39.942Z,3.95
2023-12-09T15:56:41.743Z,3.95
2023-12-09T16:01:43.455Z,3.99
2023-12-09T16:06:45.274Z,3.99
2023-12-09T16:11:47.038Z,3.99
2023-12-09T16:16:48.911Z,4.10
2023-12-09T16:21:50.715Z,4.02
2023-12-09T16:26:52.467Z,4.07
2023-12-09T16:31:54.172Z,4.08
2023-12-09T16:36:55.859Z,4.09
2023-12-09T16:41:57.574Z,4.04
2023-12-09T16:46:59.353Z,4.04
2023-12-09T16:52:00.965Z,4.08
2023-12-09T16:57:02.841Z,4.14
2023-12-09T17:02:04.581Z,4.21
2023-12-09T17:07:06.251Z,4.22
2023-12-09T17:12:08.564Z,4.12
2023-12-09T17:17:10.265Z,4.14
2023-12-09T17:22:11.921Z,4.27
2023-12-09T17:27:13.724Z,4.36
2023-12-09T17:32:15.418Z,4.44
2023-12-09T17:37:17.104Z,4.44
2023-12-09T17:42:18.963Z,4.59
2023-12-09T17:47:20.669Z,4.61
2023-12-09T17:52:23.806Z,4.60
2023-12-09T17:57:25.481Z,4.65
2023-12-09T18:02:27.444Z,4.55
2023-12-09T18:07:29.630Z,4.54
2023-12-09T18:12:31.645Z,4.52
2023-12-09T18:17:34.108Z,4.61
2023-12-09T18:22:35.848Z,4.65
2023-12-09T18:27:38.111Z,4.64
2023-12-09T18:32:40.128Z,4.58
2023-12-09T18:37:42.104Z,4.63
2023-12-09T18:42:43.862Z,4.66
2023-12-09T18:47:45.720Z,4.63
2023-12-09T18:52:47.398Z,4.64
2023-12-09T18:57:49.173Z,4.68
2023-12-09T19:02:50.896Z,4.74
2023-12-09T19:07:52.633Z,4.75
2023-12-09T19:12:54.404Z,4.84
2023-12-09T19:17:56.193Z,4.83
2023-12-09T19:23:00.057Z,4.89
2023-12-09T19:28:04.476Z,4.90
2023-12-09T19:33:06.425Z,4.91
2023-12-09T19:38:08.134Z,4.87
2023-12-09T19:43:09.792Z,4.90
2023-12-09T19:48:11.594Z,4.88
2023-12-09T19:53:13.331Z,4.86
2023-12-09T19:58:15.033Z,4.90
2023-12-09T20:03:16.805Z,4.96
2023-12-09T20:08:18.588Z,4.86
2023-12-09T20:13:20.680Z,5.04
2023-12-09T20:18:22.469Z,5.00
2023-12-09T20:23:24.183Z,4.86
2023-12-09T20:28:26.501Z,4.81
2023-12-09T20:33:28.887Z,4.89
2023-12-09T20:38:33.780Z,4.92
2023-12-09T20:43:36.568Z,4.86
2023-12-09T20:48:38.305Z,4.85
2023-12-09T20:53:40.064Z,5.18
2023-12-09T20:58:41.719Z,4.82
2023-12-09T21:03:44.108Z,4.75
2023-12-09T21:08:45.818Z,4.76
2023-12-09T21:13:47.657Z,4.80
2023-12-09T21:18:49.501Z,4.83
2023-12-09T21:23:51.276Z,4.92
2023-12-09T21:28:53.078Z,4.78
2023-12-09T21:33:54.856Z,4.78
2023-12-09T21:38:56.724Z,4.75
2023-12-09T21:43:58.503Z,4.71
2023-12-09T21:49:00.770Z,4.77
2023-12-09T21:54:02.593Z,4.56
2023-12-09T21:59:04.315Z,4.49
2023-12-09T22:04:06.664Z,4.47
2023-12-09T22:09:08.396Z,4.38
2023-12-09T22:14:10.145Z,4.42
2023-12-09T22:19:11.903Z,4.28
2023-12-09T22:24:13.688Z,4.26
2023-12-09T22:29:15.399Z,4.33
2023-12-09T22:34:17.123Z,4.19
2023-12-09T22:39:19.056Z,4.13
2023-12-09T22:44:20.932Z,4.19
2023-12-09T22:49:22.710Z,4.24
2023-12-09T22:54:24.496Z,4.22
2023-12-09T22:59:26.169Z,4.17
2023-12-09T23:04:27.904Z,4.14
2023-12-09T23:09:30.333Z,4.09
2023-12-09T23:14:32.085Z,4.05
2023-12-09T23:19:33.797Z,3.98
2023-12-09T23:24:35.501Z,3.95
2023-12-09T23:29:37.158Z,3.94
2023-12-09T23:34:38.913Z,3.80
2023-12-09T23:39:40.681Z,3.89
2023-12-09T23:44:42.370Z,3.81
2023-12-09T23:49:44.063Z,3.86
2023-12-09T23:54:45.760Z,3.89
2023-12-09T23:59:47.664Z,3.86
